Van Hornesville, New York
Current Conditions -  °F | °C
As of 5:35 PM on Thursday 20 Nov 2014 (Local Time) from KNY0 Reporting Station
Broken Clouds Broken Clouds  
Wind Chill: 17°   Ceiling: 9500
Heat Index: 23°   Visibility: 10mi
Dew Point: 12°   Wind: 5mph
Humidity: 62%   Direction: 260°W
Pressure: 29.85"   Gusts: NA
Location:  42.89°N, 74.83°W
Report Text: KNY0 202235Z AUTO 26004KT 10SM BKN095 M05/M11 A2985 RMK AO2 T10481111
Loading
Personal Weather Stations






























Interactive Weather Map New forecast layout! Learn more

10-Day Weather Forecast

Advertisements
Track Severe Weather on mobile